Terminal Aerodrome Forecast
Issued by NWS Glasgow, MT

Home | Current Version | Previous Version | Text Only | Print | Product List | Glossary On
Versions: 1 2 3 4 5 6 7 8 9 10 11 12 13 14 15 16 17
071
FTUS45 KGGW 071720
TAFGGW
TAF
KGGW 071720Z 0718/0818 32024G33KT P6SM SKC
     FM080000 31013KT P6SM FEW250
     FM080300 30008KT P6SM FEW250=

USA.gov is the U.S. government's official web portal to all federal, state and local government web resources and services.